Погода Лемурна неделю

Калифорния, США

01 - 07 сентября
  • 01сентября
    Сегодня
    +13°
    +29°
    Ясно и безоблачно
    ВремяПогодаТемператураВлажностьДавлениеВетер, м/сВероятность осадков
    02:00Небольшая облачность+20°C65 %754 мм4.1 м/с2 %
    05:00Ясно и безоблачно+15°C78 %754 мм1.8 м/с2 %
    08:00Ясно и безоблачно+16°C71 %755 мм2.2 м/с2 %
    11:00Ясно и безоблачно+22°C41 %756 мм3.3 м/с2 %
    14:00Ясно и безоблачно+26°C28 %754 мм1.6 м/с2 %
    17:00Ясно и безоблачно+29°C23 %753 мм1.9 м/с2 %
    20:00Ясно и безоблачно+23°C42 %753 мм1.3 м/с2 %
    23:00Ясно и безоблачно+20°C50 %755 мм5.5 м/с2 %
  • 02сентября
    Среда
    +15°
    +29°
    Ясно и безоблачно
    ВремяПогодаТемператураВлажностьДавлениеВетер, м/сВероятность осадков
    02:00Ясно и безоблачно+17°C66 %756 мм4.4 м/с2 %
    05:00Ясно и безоблачно+15°C79 %756 мм1.9 м/с2 %
    08:00Ясно и безоблачно+15°C71 %757 мм1.5 м/с2 %
    11:00Ясно и безоблачно+21°C43 %757 мм2.8 м/с2 %
    14:00Ясно и безоблачно+26°C29 %755 мм1.9 м/с2 %
    17:00Ясно и безоблачно+28°C25 %754 мм2.9 м/с2 %
    20:00Ясно и безоблачно+23°C40 %753 мм1.0 м/с2 %
    23:00Ясно и безоблачно+21°C52 %754 мм4.8 м/с2 %
  • 03сентября
    Четверг
    +15°
    +30°
    Ясно и безоблачно
    ВремяПогодаТемператураВлажностьДавлениеВетер, м/сВероятность осадков
    02:00Ясно и безоблачно+18°C66 %755 мм4.9 м/с2 %
    05:00Ясно и безоблачно+16°C77 %754 мм2.9 м/с2 %
    08:00Ясно и безоблачно+17°C69 %755 мм2.3 м/с2 %
    11:00Ясно и безоблачно+23°C41 %755 мм2.4 м/с2 %
    14:00Ясно и безоблачно+28°C29 %753 мм1.8 м/с2 %
    17:00Ясно и безоблачно+29°C26 %751 мм2.0 м/с2 %
    20:00Ясно и безоблачно+25°C43 %750 мм1.7 м/с2 %
    23:00Ясно и безоблачно+22°C56 %751 мм5.9 м/с2 %
  • 04сентября
    Пятница
    +15°
    +30°
    Ясно и безоблачно
    ВремяПогодаТемператураВлажностьДавлениеВетер, м/сВероятность осадков
    02:00Ясно и безоблачно+19°C71 %752 мм4.9 м/с2 %
    05:00Ясно и безоблачно+17°C86 %752 мм2.4 м/с2 %
    08:00Ясно и безоблачно+17°C76 %754 мм2.0 м/с2 %
    11:00Ясно и безоблачно+22°C46 %754 мм3.0 м/с2 %
    14:00Ясно и безоблачно+27°C32 %752 мм1.7 м/с2 %
    17:00Ясно и безоблачно+29°C28 %751 мм1.9 м/с2 %
    20:00Ясно и безоблачно+25°C49 %751 мм0.8 м/с2 %
    23:00Ясно и безоблачно+22°C55 %752 мм4.5 м/с2 %
  • 05сентября
    Суббота
    +15°
    +31°
    Ясно и безоблачно
    ВремяПогодаТемператураВлажностьДавлениеВетер, м/сВероятность осадков
    02:00Ясно и безоблачно+19°C56 %753 мм4.5 м/с2 %
    05:00Ясно и безоблачно+16°C66 %754 мм1.8 м/с2 %
    08:00Ясно и безоблачно+17°C61 %755 мм1.4 м/с2 %
    11:00Ясно и безоблачно+23°C38 %754 мм2.0 м/с2 %
    14:00Ясно и безоблачно+29°C28 %753 мм1.6 м/с2 %
    17:00Ясно и безоблачно+31°C24 %752 мм1.8 м/с2 %
    20:00Ясно и безоблачно+26°C39 %752 мм2.4 м/с2 %
    23:00Ясно и безоблачно+22°C43 %753 мм3.7 м/с8 %
  • 06сентября
    Воскресенье
    +17°
    +31°
    Ясно и безоблачно
    ВремяПогодаТемператураВлажностьДавлениеВетер, м/сВероятность осадков
    05:00Ясно и безоблачно+17°C66 %754 мм1.3 м/с19 %
    11:00Ясно и безоблачно+24°C36 %755 мм2.2 м/с23 %
    17:00Ясно и безоблачно+31°C19 %752 мм1.8 м/с22 %
    23:00Ясно и безоблачно+24°C33 %754 мм3.7 м/с19 %
  • 07сентября
    Понедельник
    +18°
    +33°
    Ясно и безоблачно
    ВремяПогодаТемператураВлажностьДавлениеВетер, м/сВероятность осадков
    05:00Ясно и безоблачно+18°C53 %754 мм2.6 м/с18 %
    11:00Ясно и безоблачно+26°C34 %755 мм1.8 м/с16 %
    17:00Ясно и безоблачно+32°C18 %752 мм2.8 м/с11 %
    23:00Ясно и безоблачно+24°C29 %753 мм3.1 м/с7 %
Мы используем cookies
Соглашаюсь